Meteorología y climatología de Navarra
Datos de la estación - Meteo Navarra

Estación de Eltzaburu GN

Altitud 588 m.


Datos desde el 09/11/2018 hasta el 10/11/2018 en horario solar
Los datos son PROVISIONALES

Anterior Página 1 de 1 Siguiente Descargar: Formato para Excel 2000 o superior   Formato csv   Formato para OpenOffice Calc
Fecha Temperatura Humedad relativa Radiación global Insolación Precipitación Velocidad viento 10 m Velocidad viento 10 m Dirección viento 10 m
ºC % W/m² s l/m² m/s km/h º
09/11/2018 0:00 7.2 99 0.0 0 0.7 1.0 3.7 86
09/11/2018 0:10 7.1 100 0.0 0 0.7 0.6 2.1 99
09/11/2018 0:20 7.1 100 0.0 0 0.4 0.3 1.0 118
09/11/2018 0:30 7.1 100 0.0 0 0.3 0.4 1.6 110
09/11/2018 0:40 7.0 100 0.0 0 0.3 0.5 1.8 108
09/11/2018 0:50 6.9 100 0.0 0 0.2 0.6 2.2 44
09/11/2018 1:00 7.0 100 0.0 0 0.0 0.9 3.1 58
09/11/2018 1:10 6.9 100 0.0 0 0.0 0.4 1.3 98
09/11/2018 1:20 6.9 100 0.0 0 0.0 0.4 1.3 68
09/11/2018 1:30 6.8 100 0.0 0 0.0 0.5 1.9 3
09/11/2018 1:40 6.7 100 0.0 0 0.0 0.7 2.5 262
09/11/2018 1:50 6.6 100 0.0 0 0.0 0.4 1.5 203
09/11/2018 2:00 6.6 100 0.0 0 0.0 0.5 1.7 323
09/11/2018 2:10 6.6 100 0.0 0 0.0 0.8 3.0 343
09/11/2018 2:20 6.7 100 0.0 0 0.0 0.7 2.5 2
09/11/2018 2:30 6.8 100 0.0 0 0.0 0.4 1.3 22
09/11/2018 2:40 6.8 100 0.0 0 0.0 0.4 1.4 25
09/11/2018 2:50 6.9 100 0.0 0 0.1 0.2 0.9 213
09/11/2018 3:00 6.9 100 0.0 0 0.0 0.3 1.2 303
09/11/2018 3:10 6.8 100 0.0 0 0.2 1.0 3.6 340
09/11/2018 3:20 6.8 100 0.0 0 0.3 0.8 2.9 322
09/11/2018 3:30 6.8 100 0.0 0 0.2 0.5 1.7 293
09/11/2018 3:40 6.8 100 0.0 0 0.0 0.4 1.5 246
09/11/2018 3:50 6.9 100 0.0 0 0.0 0.4 1.4 297
09/11/2018 4:00 6.8 100 0.0 0 0.0 0.1 0.5 267
09/11/2018 4:10 6.8 100 0.0 0 0.0 0.2 0.7 85
09/11/2018 4:20 6.8 100 0.0 0 0.1 0.5 1.7 301
09/11/2018 4:30 6.9 100 0.0 0 0.0 0.1 0.5 323
09/11/2018 4:40 6.9 100 0.0 0 0.1 0.1 0.5 340
09/11/2018 4:50 6.9 100 0.0 0 0.0 0.6 2.1 13
09/11/2018 5:00 6.8 100 0.0 0 0.1 0.6 2.0 347
09/11/2018 5:10 6.9 100 0.0 0 0.1 0.2 0.7 329
09/11/2018 5:20 6.8 100 0.0 0 0.1 0.5 1.8 97
09/11/2018 5:30 6.9 100 0.0 0 0.0 0.4 1.5 119
09/11/2018 5:40 6.9 100 0.0 0 0.1 0.4 1.3 60
09/11/2018 5:50 6.8 100 0.0 0 0.0 1.6 5.8 330
09/11/2018 6:00 7.0 98 0.0 0 0.0 2.4 8.8 305
09/11/2018 6:10 7.3 93 0.0 0 0.0 1.9 6.7 309
09/11/2018 6:20 7.2 95 0.0 0 0.0 0.9 3.1 330
09/11/2018 6:30 7.1 95 0.0 0 0.0 1.0 3.5 352
09/11/2018 6:40 7.0 96 0.0 0 0.0 1.2 4.4 3
09/11/2018 6:50 7.1 95 0.0 0 0.0 1.2 4.2 338
09/11/2018 7:00 7.1 94 0.0 0 0.0 1.9 6.7 337
09/11/2018 7:10 7.3 92 0.0 0 0.0 1.7 5.9 327
09/11/2018 7:20 7.3 92 0.0 0 0.0 1.3 4.8 328
09/11/2018 7:30 7.3 94 3.7 0 0.0 1.1 3.8 317
09/11/2018 7:40 7.2 94 7.6 0 0.0 1.1 4.0 317
09/11/2018 7:50 7.4 93 23.4 0 0.0 0.9 3.1 303
09/11/2018 8:00 7.4 94 30.4 0 0.0 0.5 1.8 314
09/11/2018 8:10 7.4 96 32.4 0 0.0 0.3 1.0 173
09/11/2018 8:20 7.4 97 33.9 0 0.0 0.5 1.9 244
09/11/2018 8:30 7.5 95 39.3 0 0.0 0.4 1.5 278
09/11/2018 8:40 7.6 95 49.5 0 0.0 0.2 0.8 315
09/11/2018 8:50 7.7 95 68.7 0 0.0 0.2 0.5 236
09/11/2018 9:00 7.8 93 46.8 0 0.0 0.5 1.9 217
09/11/2018 9:10 7.9 92 51.2 0 0.0 0.5 1.9 253
09/11/2018 9:20 7.9 93 47.0 0 0.0 0.7 2.7 283
09/11/2018 9:30 7.9 94 56.2 0 0.0 0.6 2.3 292
09/11/2018 9:40 8.0 94 71.8 0 0.0 0.8 3.0 280
09/11/2018 9:50 8.0 95 90.4 0 0.0 0.9 3.3 276
09/11/2018 10:00 8.0 96 101.5 0 0.0 0.9 3.3 279
09/11/2018 10:10 8.1 95 92.8 0 0.0 1.3 4.7 280
09/11/2018 10:20 8.2 94 93.0 0 0.0 1.3 4.6 285
09/11/2018 10:30 8.3 93 130.6 0 0.0 0.9 3.3 268
09/11/2018 10:40 8.5 91 185.7 30 0.0 1.1 4.0 258
09/11/2018 10:50 9.0 88 301.7 420 0.0 1.0 3.7 238
09/11/2018 11:00 9.2 84 292.3 308 0.0 1.3 4.6 267
09/11/2018 11:10 9.4 85 296.5 560 0.0 1.4 4.9 297
09/11/2018 11:20 9.8 84 432.2 600 0.0 1.8 6.6 252
09/11/2018 11:30 10.0 80 384.1 404 0.0 2.2 8.0 235
09/11/2018 11:40 9.7 78 331.9 600 0.0 2.0 7.3 239
09/11/2018 11:50 10.2 78 363.3 428 0.0 1.4 5.1 242
09/11/2018 12:00 10.5 74 395.4 504 0.0 0.7 2.4 233
09/11/2018 12:10 10.7 72 218.3 0 0.0 0.4 1.6 55
09/11/2018 12:20 10.4 73 196.3 0 0.1 1.0 3.7 354
09/11/2018 12:30 10.6 74 205.3 0 0.0 0.4 1.4 104
09/11/2018 12:40 10.5 74 207.9 0 0.0 1.7 6.2 180
09/11/2018 12:50 10.5 73 261.9 228 0.0 2.2 8.1 215
09/11/2018 13:00 10.7 71 275.9 326 0.0 3.0 10.8 221
09/11/2018 13:10 11.3 69 419.9 434 0.0 1.7 6.1 215
09/11/2018 13:20 11.5 68 392.8 480 0.0 1.5 5.4 202
09/11/2018 13:30 11.5 68 315.3 464 0.0 1.1 4.1 167
09/11/2018 13:40 11.8 68 405.4 600 0.0 1.5 5.4 170
09/11/2018 13:50 12.1 69 462.1 600 0.0 1.6 5.8 158
09/11/2018 14:00 12.1 68 296.9 360 0.0 2.2 7.7 174
09/11/2018 14:10 11.2 71 233.5 316 0.0 2.4 8.7 172
09/11/2018 14:20 11.5 72 330.8 600 0.0 1.8 6.5 177
09/11/2018 14:30 12.1 72 395.8 600 0.0 1.7 6.0 173
09/11/2018 14:40 12.3 68 339.5 600 0.0 1.4 4.9 157
09/11/2018 14:50 12.1 68 283.1 548 0.0 2.0 7.3 168
09/11/2018 15:00 11.9 70 287.3 600 0.0 2.0 7.1 172
09/11/2018 15:10 11.9 68 211.2 600 0.0 1.4 5.0 164
09/11/2018 15:20 12.0 68 226.9 600 0.0 1.4 5.1 163
09/11/2018 15:30 12.3 67 200.0 600 0.0 1.3 4.7 165
09/11/2018 15:40 12.2 67 122.3 328 0.0 1.1 4.1 167
09/11/2018 15:50 11.1 67 59.4 148 0.0 1.9 6.7 179
09/11/2018 16:00 11.2 65 124.2 600 0.0 2.2 8.1 186
09/11/2018 16:10 11.4 60 87.7 600 0.0 2.5 9.0 197
09/11/2018 16:20 10.9 61 41.0 204 0.0 1.9 6.9 215
09/11/2018 16:30 10.0 65 10.5 0 0.0 1.4 4.9 194
09/11/2018 16:40 9.5 67 0.0 0 0.0 1.5 5.3 165
09/11/2018 16:50 9.1 67 0.0 0 0.0 2.1 7.4 165
09/11/2018 17:00 9.1 65 0.0 0 0.0 1.9 7.0 168
09/11/2018 17:10 9.2 64 0.0 0 0.0 1.8 6.4 172
09/11/2018 17:20 8.9 67 0.0 0 0.0 1.4 4.9 161
09/11/2018 17:30 8.3 70 0.0 0 0.0 1.5 5.3 158
09/11/2018 17:40 8.1 73 0.0 0 0.0 0.9 3.1 140
09/11/2018 17:50 7.7 78 0.0 0 0.0 0.7 2.6 105
09/11/2018 18:00 7.5 82 0.0 0 0.0 0.7 2.4 115
09/11/2018 18:10 7.6 81 0.0 0 0.0 0.5 1.9 101
09/11/2018 18:20 7.6 84 0.0 0 0.0 0.5 1.7 102
09/11/2018 18:30 7.7 83 0.0 0 0.0 0.4 1.4 101
09/11/2018 18:40 7.7 83 0.0 0 0.0 0.7 2.4 93
09/11/2018 18:50 7.7 85 0.0 0 0.0 0.4 1.5 92
09/11/2018 19:00 7.7 86 0.0 0 0.0 0.5 1.8 83
09/11/2018 19:10 7.7 87 0.0 0 0.0 0.1 0.4 114
09/11/2018 19:20 7.7 87 0.0 0 0.0 0.2 0.8 99
09/11/2018 19:30 7.8 87 0.0 0 0.0 0.4 1.5 136
09/11/2018 19:40 8.0 86 0.0 0 0.0 0.4 1.3 119
09/11/2018 19:50 8.0 85 0.0 0 0.0 0.4 1.3 139
09/11/2018 20:00 8.1 87 0.0 0 0.0 0.3 1.1 77
09/11/2018 20:10 8.1 85 0.0 0 0.0 0.5 1.7 139
09/11/2018 20:20 8.1 88 0.0 0 0.0 0.5 1.9 104
09/11/2018 20:30 7.9 89 0.0 0 0.0 0.5 1.7 136
09/11/2018 20:40 8.2 86 0.0 0 0.0 1.2 4.4 159
09/11/2018 20:50 8.5 85 0.0 0 0.0 0.6 2.3 138
09/11/2018 21:00 8.3 88 0.0 0 0.0 0.6 2.2 102
09/11/2018 21:10 8.1 90 0.0 0 0.0 0.8 2.7 93
09/11/2018 21:20 8.1 90 0.0 0 0.0 0.4 1.3 107
09/11/2018 21:30 8.1 91 0.0 0 0.0 0.5 1.7 103
09/11/2018 21:40 8.1 91 0.0 0 0.0 0.7 2.5 126
09/11/2018 21:50 8.2 91 0.0 0 0.0 0.6 2.1 100
09/11/2018 22:00 8.2 90 0.0 0 0.1 0.9 3.2 158
09/11/2018 22:10 8.2 90 0.0 0 0.0 1.6 5.8 159
09/11/2018 22:20 8.3 87 0.0 0 0.0 1.6 5.8 153
09/11/2018 22:30 8.5 84 0.0 0 0.0 1.7 6.0 158
09/11/2018 22:40 8.5 82 0.0 0 0.0 2.0 7.2 165
09/11/2018 22:50 8.8 79 0.0 0 0.0 2.2 7.9 168
09/11/2018 23:00 8.5 82 0.0 0 0.0 1.8 6.4 163
09/11/2018 23:10 8.5 81 0.0 0 0.0 1.9 6.9 169
09/11/2018 23:20 8.5 81 0.0 0 0.0 1.4 5.1 167
09/11/2018 23:30 8.4 82 0.0 0 0.0 1.0 3.6 157
09/11/2018 23:40 8.4 80 0.0 0 0.0 1.4 5.1 178
09/11/2018 23:50 8.4 80 0.0 0 0.0 1.6 5.7 168
Anterior Página 1 de 1 Siguiente

NOTA: Tipo de datos según el color:
   - Valores diarios o 10 minutos correctos
   - Valores diarios calculados a partir de un número de datos 10 minutos menor que 144 y mayor que 120, o de un número de datos semihorarios menor que 48 y mayor que 40 (caso de las estaciones de Riegos de Navarra y del MARM)
   - Valores diez minutos estimados


Contacto        Enlaces        Aviso legal